Time;durP1;ratioP1;P1;durP2;ratioP2;P2;SDS_P1;SDS_P2;PMS_P1;PMS_P2;Temp;Humidity;BMP_temperature;BMP_pressure;BME280_temperature;BME280_humidity;BME280_pressure;Samples;Min_cycle;Max_cycle;Signal;HPM_P1;HPM_P2
2024/04/24 00:00:14;;;;;;;7.40;6.70;;;6.10;99.90;;;;;;5347179;26;20579;-67
2024/04/24 00:02:43;;;;;;;8.27;7.40;;;6.10;99.90;;;;;;5351220;26;20538;-67
2024/04/24 00:05:13;;;;;;;10.27;7.10;;;6.10;99.90;;;;;;5351903;26;20498;-67
2024/04/24 00:07:43;;;;;;;7.47;6.73;;;6.10;99.90;;;;;;5354331;26;20540;-66
2024/04/24 00:10:14;;;;;;;8.50;7.63;;;6.10;99.90;;;;;;5357536;26;20476;-67
2024/04/24 00:12:44;;;;;;;8.23;7.43;;;6.10;99.90;;;;;;5352863;26;21051;-67
2024/04/24 00:15:16;;;;;;;9.30;7.40;;;6.10;99.90;;;;;;5356227;26;20533;-67
2024/04/24 00:17:46;;;;;;;7.70;6.90;;;6.10;99.90;;;;;;5354581;26;20521;-67
2024/04/24 00:20:16;;;;;;;8.30;7.00;;;6.10;99.90;;;;;;5350017;26;21096;-66
2024/04/24 00:22:46;;;;;;;9.60;7.80;;;6.10;99.90;;;;;;5348224;26;20490;-67
2024/04/24 00:25:16;;;;;;;8.80;7.63;;;6.10;99.90;;;;;;5351304;26;20489;-67
2024/04/24 00:27:46;;;;;;;8.83;7.93;;;6.10;99.90;;;;;;5353085;26;20544;-68
2024/04/24 00:30:18;;;;;;;9.60;7.77;;;6.10;99.90;;;;;;5354514;26;20578;-67
2024/04/24 00:32:50;;;;;;;8.40;7.50;;;6.00;99.90;;;;;;5355509;26;20540;-67
2024/04/24 00:35:20;;;;;;;8.77;7.60;;;6.00;99.90;;;;;;5353049;26;20472;-67
2024/04/24 00:37:50;;;;;;;10.33;8.07;;;6.00;99.90;;;;;;5358895;26;20536;-67
2024/04/24 00:40:20;;;;;;;9.57;8.50;;;6.00;99.90;;;;;;5349760;26;20536;-67
2024/04/24 00:42:50;;;;;;;9.03;7.97;;;6.00;99.90;;;;;;5354242;26;20485;-67
2024/04/24 00:45:22;;;;;;;12.70;8.43;;;6.00;99.90;;;;;;5353682;26;21037;-67
2024/04/24 00:47:53;;;;;;;12.60;8.40;;;6.00;99.90;;;;;;5349573;26;20529;-67
2024/04/24 00:50:24;;;;;;;10.10;8.17;;;6.00;99.90;;;;;;5344813;26;20559;-67
2024/04/24 00:52:54;;;;;;;10.00;8.60;;;6.00;99.90;;;;;;5357657;26;21004;-66
2024/04/24 00:55:24;;;;;;;9.90;7.70;;;6.10;99.90;;;;;;5348526;26;20484;-66
2024/04/24 00:57:54;;;;;;;11.07;7.20;;;6.10;99.90;;;;;;5355270;26;20481;-67
2024/04/24 01:00:27;;;;;;;8.60;7.40;;;6.10;99.90;;;;;;5359029;26;20465;-67
2024/04/24 01:02:57;;;;;;;9.70;7.27;;;6.10;99.90;;;;;;5355828;26;20489;-67
2024/04/24 01:05:26;;;;;;;9.73;7.67;;;6.10;99.90;;;;;;5360017;26;20545;-67
2024/04/24 01:07:56;;;;;;;8.27;6.30;;;6.10;99.90;;;;;;5355295;26;20597;-67
2024/04/24 01:10:26;;;;;;;8.50;7.10;;;6.10;99.90;;;;;;5359690;26;21188;-67
2024/04/24 01:12:56;;;;;;;7.00;6.30;;;6.10;99.90;;;;;;5354325;26;20472;-67
2024/04/24 01:15:28;;;;;;;7.60;6.70;;;6.10;99.90;;;;;;5357112;26;20493;-67
2024/04/24 01:18:00;;;;;;;7.40;6.20;;;6.10;99.90;;;;;;5358746;26;20481;-67
2024/04/24 01:20:31;;;;;;;7.93;6.20;;;6.10;99.90;;;;;;5354992;26;20524;-67
2024/04/24 01:23:25;;;;;;;8.93;7.10;;;6.10;99.90;;;;;;5356680;26;20478;-67
2024/04/24 01:26:02;;;;;;;8.83;7.10;;;6.10;99.90;;;;;;5351095;26;20549;-67
2024/04/24 01:28:35;;;;;;;8.70;7.80;;;6.10;99.90;;;;;;5359629;26;20493;-67
2024/04/24 01:31:06;;;;;;;8.87;7.53;;;6.00;99.90;;;;;;5352930;26;20541;-67
2024/04/24 01:33:36;;;;;;;9.70;7.93;;;6.00;99.90;;;;;;5356992;26;20477;-67
2024/04/24 01:36:07;;;;;;;9.67;7.80;;;6.00;99.90;;;;;;5354781;26;20942;-67
2024/04/24 01:38:36;;;;;;;8.80;7.50;;;6.00;99.90;;;;;;5358662;26;20481;-67
2024/04/24 01:41:06;;;;;;;8.70;7.30;;;6.00;99.90;;;;;;5352109;26;20530;-67
2024/04/24 01:43:39;;;;;;;10.13;7.80;;;6.00;99.90;;;;;;5354508;26;20549;-67
2024/04/24 01:46:08;;;;;;;9.13;6.67;;;6.00;99.90;;;;;;5353995;26;20492;-67
2024/04/24 01:48:38;;;;;;;8.90;7.27;;;6.00;99.90;;;;;;5356566;26;20482;-67
2024/04/24 01:51:08;;;;;;;10.50;7.80;;;6.10;99.90;;;;;;5355158;26;20488;-67
2024/04/24 01:53:35;;;;;;;8.83;7.60;;;6.10;99.90;;;;;;5359553;26;20905;-67
2024/04/24 01:56:06;;;;;;;11.37;7.90;;;6.00;99.90;;;;;;5347211;26;20485;-67
2024/04/24 01:58:38;;;;;;;9.37;8.20;;;6.00;99.90;;;;;;5350373;26;20538;-67
2024/04/24 02:01:08;;;;;;;11.23;8.93;;;6.10;99.90;;;;;;5351824;26;20883;-67
2024/04/24 02:03:38;;;;;;;10.93;8.67;;;6.10;99.90;;;;;;5349620;26;20484;-67
2024/04/24 02:06:07;;;;;;;10.30;8.70;;;6.10;99.90;;;;;;5359573;26;20541;-67
2024/04/24 02:08:37;;;;;;;12.70;8.50;;;6.10;99.90;;;;;;5360534;26;20493;-67
2024/04/24 02:11:07;;;;;;;12.87;9.47;;;6.10;99.90;;;;;;5354006;26;20484;-67
2024/04/24 02:13:40;;;;;;;13.20;9.13;;;6.10;99.90;;;;;;5356552;26;20490;-67
2024/04/24 02:16:07;;;;;;;14.03;10.50;;;6.10;99.90;;;;;;5353950;26;20488;-67
2024/04/24 02:18:36;;;;;;;12.47;9.77;;;6.10;99.90;;;;;;5357057;26;20603;-67
2024/04/24 02:21:09;;;;;;;13.53;10.10;;;6.10;99.90;;;;;;5356276;26;20486;-66
2024/04/24 02:23:39;;;;;;;13.20;9.70;;;6.00;99.90;;;;;;5354138;26;20476;-67
2024/04/24 02:26:06;;;;;;;12.30;9.37;;;6.00;99.90;;;;;;5355279;26;20494;-66
2024/04/24 02:28:36;;;;;;;12.07;10.07;;;6.00;99.90;;;;;;5353313;26;20537;-67
2024/04/24 02:31:09;;;;;;;14.73;9.60;;;6.10;99.90;;;;;;5355038;26;20476;-66
2024/04/24 02:33:39;;;;;;;11.20;9.60;;;6.10;99.90;;;;;;5352809;26;20488;-67
2024/04/24 02:36:09;;;;;;;14.00;10.03;;;6.10;99.90;;;;;;5357224;26;20596;-66
2024/04/24 02:38:39;;;;;;;12.60;9.37;;;6.10;99.90;;;;;;5357442;26;20480;-67
2024/04/24 02:41:09;;;;;;;15.17;10.27;;;6.00;99.90;;;;;;5351086;26;21061;-67
2024/04/24 02:43:40;;;;;;;12.03;9.30;;;6.00;99.90;;;;;;5361037;26;20548;-67
2024/04/24 02:46:12;;;;;;;13.63;9.30;;;6.00;99.90;;;;;;5358594;26;20500;-67
2024/04/24 02:48:42;;;;;;;15.30;9.27;;;6.10;99.90;;;;;;5360966;26;20488;-67
2024/04/24 02:51:12;;;;;;;12.00;9.63;;;6.00;99.90;;;;;;5358156;26;20488;-67
2024/04/24 02:53:42;;;;;;;13.43;8.70;;;6.10;99.90;;;;;;5360045;26;20520;-67
2024/04/24 02:56:11;;;;;;;11.17;8.30;;;6.10;99.90;;;;;;5343974;26;21112;-67
2024/04/24 02:58:41;;;;;;;11.73;8.60;;;6.10;99.90;;;;;;5358554;26;20545;-67
2024/04/24 03:01:16;;;;;;;10.73;7.90;;;6.00;99.90;;;;;;5361311;26;20540;-67
2024/04/24 03:03:43;;;;;;;10.37;8.30;;;6.00;99.90;;;;;;5356135;26;20489;-67
2024/04/24 03:06:13;;;;;;;11.43;7.80;;;6.00;99.90;;;;;;5356401;26;20484;-67
2024/04/24 03:08:40;;;;;;;9.93;7.60;;;6.00;99.90;;;;;;5358039;26;20485;-67
2024/04/24 03:11:11;;;;;;;10.40;7.83;;;6.00;99.90;;;;;;5359947;26;20528;-67
2024/04/24 03:13:41;;;;;;;9.50;8.13;;;6.00;99.90;;;;;;5358486;26;20485;-67
2024/04/24 03:16:11;;;;;;;10.27;8.17;;;6.00;99.90;;;;;;5356513;26;20492;-67
2024/04/24 03:18:44;;;;;;;10.60;8.17;;;5.90;99.90;;;;;;5356857;26;20525;-67
2024/04/24 03:21:21;;;;;;;9.70;7.67;;;5.90;99.90;;;;;;5358831;26;20477;-67
2024/04/24 03:23:52;;;;;;;9.47;8.13;;;6.00;99.90;;;;;;5352287;26;20477;-67
2024/04/24 03:26:21;;;;;;;9.67;8.03;;;5.90;99.90;;;;;;5356849;26;21296;-67
2024/04/24 03:28:51;;;;;;;9.90;8.17;;;6.00;99.90;;;;;;5353504;26;20599;-67
2024/04/24 03:31:21;;;;;;;12.00;9.60;;;6.00;99.90;;;;;;5352429;26;20544;-67
2024/04/24 03:33:53;;;;;;;11.27;8.77;;;6.00;99.90;;;;;;5356147;26;20478;-67
2024/04/24 03:36:23;;;;;;;10.37;8.10;;;6.00;99.90;;;;;;5358658;26;20547;-67
2024/04/24 03:38:53;;;;;;;12.43;8.40;;;6.00;99.90;;;;;;5354662;26;21027;-67
2024/04/24 03:41:23;;;;;;;9.43;6.83;;;6.00;99.90;;;;;;5351445;26;20538;-67
2024/04/24 03:43:53;;;;;;;8.03;6.97;;;6.00;99.90;;;;;;5357364;26;21157;-67
2024/04/24 03:46:23;;;;;;;8.90;7.60;;;5.90;99.90;;;;;;5355528;26;20501;-67
2024/04/24 03:48:56;;;;;;;8.73;7.20;;;5.90;99.90;;;;;;5351109;26;20540;-67
2024/04/24 03:51:26;;;;;;;9.00;7.50;;;5.90;99.90;;;;;;5357265;26;20481;-67
2024/04/24 03:53:56;;;;;;;9.67;7.40;;;6.00;99.90;;;;;;5355390;26;21176;-67
2024/04/24 03:56:26;;;;;;;8.13;7.30;;;5.90;99.90;;;;;;5352482;26;20491;-67
2024/04/24 03:58:56;;;;;;;10.00;7.13;;;5.90;99.90;;;;;;5358958;26;20480;-68
2024/04/24 04:01:27;;;;;;;8.87;6.00;;;5.90;99.90;;;;;;5354528;26;20602;-67
2024/04/24 04:04:00;;;;;;;7.57;6.43;;;5.90;99.90;;;;;;5351519;26;20492;-67
2024/04/24 04:06:32;;;;;;;10.00;6.50;;;5.80;99.90;;;;;;5353110;26;20559;-67
2024/04/24 04:09:02;;;;;;;6.80;5.80;;;5.80;99.90;;;;;;5352499;26;20523;-67
2024/04/24 04:11:32;;;;;;;7.50;6.50;;;5.90;99.90;;;;;;5355463;26;20572;-67
2024/04/24 04:14:02;;;;;;;8.70;7.00;;;5.90;99.90;;;;;;5352869;26;20472;-67
2024/04/24 04:16:32;;;;;;;9.80;7.27;;;5.90;99.90;;;;;;5349823;26;20485;-66
2024/04/24 04:19:02;;;;;;;7.03;6.33;;;5.80;99.90;;;;;;5353175;26;20488;-67
2024/04/24 04:21:32;;;;;;;9.37;6.60;;;5.90;99.90;;;;;;5354380;26;20544;-67
2024/04/24 04:24:01;;;;;;;6.87;6.17;;;5.90;99.90;;;;;;5357937;26;20477;-67
2024/04/24 04:26:31;;;;;;;7.07;6.10;;;5.80;99.90;;;;;;5346842;26;20598;-67
2024/04/24 04:29:01;;;;;;;8.47;6.20;;;5.90;99.90;;;;;;5354701;26;20469;-67
2024/04/24 04:31:31;;;;;;;8.33;6.90;;;5.80;99.90;;;;;;5350026;26;20499;-67
2024/04/24 04:34:03;;;;;;;9.50;6.50;;;5.90;99.90;;;;;;5355994;26;20538;-66
2024/04/24 04:36:33;;;;;;;8.33;6.40;;;5.90;99.90;;;;;;5350359;26;22951;-67
2024/04/24 04:39:03;;;;;;;11.00;6.70;;;5.90;99.90;;;;;;5348666;26;20493;-67
2024/04/24 04:41:33;;;;;;;7.77;5.70;;;6.00;99.90;;;;;;5351801;26;20497;-67
2024/04/24 04:44:03;;;;;;;10.30;6.63;;;6.00;99.90;;;;;;5351177;26;20533;-67
2024/04/24 04:46:33;;;;;;;8.53;6.90;;;6.10;99.90;;;;;;5351561;26;20528;-67
2024/04/24 04:49:06;;;;;;;7.63;6.70;;;6.00;99.90;;;;;;5351862;26;22404;-67
2024/04/24 04:51:33;;;;;;;8.67;7.13;;;6.00;99.90;;;;;;5345758;26;20524;-66
2024/04/24 04:54:03;;;;;;;9.73;7.60;;;5.90;99.90;;;;;;5356941;26;21122;-67
2024/04/24 04:56:33;;;;;;;9.93;7.60;;;5.90;99.90;;;;;;5349354;26;20474;-67
2024/04/24 04:59:03;;;;;;;9.10;8.20;;;5.90;99.90;;;;;;5355352;26;20530;-68
2024/04/24 05:01:32;;;;;;;10.40;8.10;;;5.90;99.90;;;;;;5348943;26;20585;-67
2024/04/24 05:04:05;;;;;;;10.30;8.77;;;6.00;99.90;;;;;;5340962;26;20475;-67
2024/04/24 05:06:35;;;;;;;13.57;8.60;;;6.00;99.90;;;;;;5344756;26;20520;-67
2024/04/24 05:09:04;;;;;;;11.07;9.23;;;6.00;99.90;;;;;;5350463;26;20474;-66
2024/04/24 05:11:34;;;;;;;12.20;8.50;;;6.00;99.90;;;;;;5353625;26;20489;-66
2024/04/24 05:14:04;;;;;;;13.50;9.07;;;5.90;99.90;;;;;;5342566;26;20690;-67
2024/04/24 05:16:34;;;;;;;14.00;9.13;;;5.90;99.90;;;;;;5338955;26;20735;-68
2024/04/24 05:19:07;;;;;;;15.90;10.80;;;5.90;99.90;;;;;;5339472;26;21090;-66
2024/04/24 05:21:37;;;;;;;13.10;9.63;;;5.90;99.90;;;;;;5340735;26;20486;-69
2024/04/24 05:24:07;;;;;;;12.37;9.50;;;5.90;99.90;;;;;;5337280;26;20947;-67
2024/04/24 05:29:22;;;;;;;11.27;9.53;;;5.90;99.90;;;;;;5347058;26;20492;-67
2024/04/24 05:31:52;;;;;;;14.33;10.33;;;5.90;99.90;;;;;;5344660;26;20647;-67
2024/04/24 05:34:25;;;;;;;13.03;9.90;;;5.90;99.90;;;;;;5347046;26;20468;-67
2024/04/24 05:36:57;;;;;;;12.80;10.40;;;5.80;99.90;;;;;;5347688;26;20500;-66
2024/04/24 05:39:27;;;;;;;12.27;9.90;;;5.80;99.90;;;;;;5342519;26;20845;-67
2024/04/24 05:41:56;;;;;;;13.03;9.23;;;5.90;99.90;;;;;;5343966;26;20489;-68
2024/04/24 05:44:27;;;;;;;10.80;9.17;;;5.90;99.90;;;;;;5347985;26;22373;-67
2024/04/24 05:46:57;;;;;;;13.27;9.03;;;5.90;99.90;;;;;;5350152;26;20518;-67
2024/04/24 05:49:30;;;;;;;10.17;8.47;;;5.90;99.90;;;;;;5349352;26;20500;-67
2024/04/24 05:51:59;;;;;;;11.90;8.40;;;5.90;99.90;;;;;;5354290;26;20529;-67
2024/04/24 05:54:30;;;;;;;9.63;8.03;;;5.90;99.90;;;;;;5347638;26;20473;-67
2024/04/24 05:57:00;;;;;;;10.23;8.63;;;5.90;99.90;;;;;;5351277;26;20486;-67
2024/04/24 05:59:30;;;;;;;8.80;7.77;;;6.00;99.90;;;;;;5354530;26;21103;-67
2024/04/24 06:02:00;;;;;;;12.13;8.13;;;6.00;99.90;;;;;;5351759;26;20495;-67
2024/04/24 06:04:32;;;;;;;9.33;8.30;;;6.00;99.90;;;;;;5345082;26;21005;-67
2024/04/24 06:07:02;;;;;;;10.90;8.17;;;6.00;99.90;;;;;;5352525;26;20500;-67
2024/04/24 06:09:32;;;;;;;9.63;7.73;;;6.00;99.90;;;;;;5355181;26;20488;-67
2024/04/24 06:12:02;;;;;;;10.23;6.97;;;6.00;99.90;;;;;;5354119;26;20477;-67
2024/04/24 06:14:32;;;;;;;7.50;6.40;;;5.90;99.90;;;;;;5347364;26;20537;-67
2024/04/24 06:17:02;;;;;;;8.03;5.67;;;6.00;99.90;;;;;;5352694;26;20554;-67
2024/04/24 06:19:34;;;;;;;9.67;5.77;;;5.90;99.90;;;;;;5358168;26;20589;-67
2024/04/24 06:22:04;;;;;;;8.10;5.50;;;5.90;99.90;;;;;;5354094;26;21119;-67
2024/04/24 06:24:34;;;;;;;5.70;4.40;;;5.90;99.90;;;;;;5354790;26;21100;-67
2024/04/24 06:27:03;;;;;;;6.43;4.60;;;5.90;99.90;;;;;;5356754;26;20926;-68
2024/04/24 06:29:34;;;;;;;5.60;5.10;;;5.90;99.90;;;;;;5359313;26;20468;-67
2024/04/24 06:32:04;;;;;;;6.00;4.93;;;5.90;99.90;;;;;;5357805;26;21328;-67
2024/04/24 06:34:36;;;;;;;7.70;5.10;;;6.00;99.90;;;;;;5359946;26;20567;-67
2024/04/24 06:37:06;;;;;;;5.33;4.80;;;5.90;99.90;;;;;;5359948;26;20620;-67
2024/04/24 06:39:36;;;;;;;6.30;5.10;;;5.90;99.90;;;;;;5357995;26;20480;-67
2024/04/24 06:42:08;;;;;;;4.70;4.20;;;6.00;99.90;;;;;;5357062;26;20489;-67
2024/04/24 06:44:37;;;;;;;5.33;3.90;;;5.90;99.90;;;;;;5349081;26;20881;-67
2024/04/24 06:47:09;;;;;;;4.70;4.20;;;5.90;99.90;;;;;;5355807;26;20624;-66
2024/04/24 06:49:42;;;;;;;8.03;5.17;;;5.90;99.90;;;;;;5359260;26;21168;-67
2024/04/24 06:52:11;;;;;;;7.47;5.43;;;5.90;99.90;;;;;;5358592;26;20586;-67
2024/04/24 06:54:41;;;;;;;5.17;4.10;;;5.90;99.90;;;;;;5353498;26;20487;-67
2024/04/24 06:57:11;;;;;;;3.53;3.10;;;5.90;99.90;;;;;;5350844;26;20911;-71
2024/04/24 06:59:41;;;;;;;4.23;2.60;;;5.90;99.90;;;;;;5357047;26;22020;-67
2024/04/24 07:02:11;;;;;;;3.33;3.03;;;5.90;99.90;;;;;;5357930;26;20476;-67
2024/04/24 07:04:43;;;;;;;3.60;2.50;;;5.90;99.90;;;;;;5354055;26;20485;-67
2024/04/24 07:07:13;;;;;;;3.23;2.90;;;5.90;99.90;;;;;;5355614;26;20625;-67
2024/04/24 07:09:43;;;;;;;3.97;2.80;;;5.90;99.90;;;;;;5356463;26;21499;-67
2024/04/24 07:12:13;;;;;;;3.87;2.90;;;5.90;99.90;;;;;;5359809;26;20571;-67
2024/04/24 07:14:43;;;;;;;2.87;2.50;;;5.90;99.90;;;;;;5351825;26;20616;-67
2024/04/24 07:17:13;;;;;;;3.10;2.40;;;5.90;99.90;;;;;;5350212;26;20533;-67
2024/04/24 07:19:45;;;;;;;5.63;3.73;;;5.80;99.90;;;;;;5359118;26;20472;-67
2024/04/24 07:22:15;;;;;;;3.33;3.03;;;5.80;99.90;;;;;;5355963;26;20864;-67
2024/04/24 07:24:45;;;;;;;4.00;3.60;;;5.80;99.90;;;;;;5355807;26;20757;-67
2024/04/24 07:27:16;;;;;;;6.47;3.70;;;5.80;99.90;;;;;;5356005;26;20485;-67
2024/04/24 07:29:47;;;;;;;4.57;3.90;;;5.80;99.90;;;;;;5355211;26;20492;-67
2024/04/24 07:32:17;;;;;;;6.43;4.27;;;5.80;99.90;;;;;;5359664;26;20485;-67
2024/04/24 07:34:49;;;;;;;4.23;3.83;;;5.90;99.90;;;;;;5355762;26;20470;-67
2024/04/24 07:37:19;;;;;;;5.97;4.30;;;5.90;99.90;;;;;;5358711;26;20810;-67
2024/04/24 07:39:49;;;;;;;4.73;4.23;;;5.90;99.90;;;;;;5358372;26;20541;-67
2024/04/24 07:42:19;;;;;;;5.93;4.17;;;5.90;99.90;;;;;;5361376;26;20590;-67
2024/04/24 07:44:49;;;;;;;4.37;3.90;;;5.90;99.90;;;;;;5345781;26;20583;-67
2024/04/24 07:47:19;;;;;;;3.87;3.57;;;5.90;99.90;;;;;;5357056;26;20495;-67
2024/04/24 07:49:51;;;;;;;3.83;3.47;;;5.90;99.90;;;;;;5360375;26;20468;-67
2024/04/24 07:52:21;;;;;;;3.50;3.17;;;5.80;99.90;;;;;;5356026;26;20835;-67
2024/04/24 07:54:51;;;;;;;3.50;3.20;;;5.80;99.90;;;;;;5358364;26;20489;-67
2024/04/24 07:57:20;;;;;;;4.50;3.70;;;5.80;99.90;;;;;;5356900;26;20489;-67
2024/04/24 07:59:51;;;;;;;3.97;3.40;;;5.80;99.90;;;;;;5356156;26;20591;-67
2024/04/24 08:02:21;;;;;;;3.80;3.50;;;5.80;99.90;;;;;;5361452;26;20472;-67
2024/04/24 08:04:53;;;;;;;4.00;3.50;;;5.90;99.90;;;;;;5357219;26;20559;-67
2024/04/24 08:07:23;;;;;;;4.10;3.70;;;5.90;99.90;;;;;;5352669;26;20493;-67
2024/04/24 08:09:53;;;;;;;4.23;3.83;;;6.00;99.90;;;;;;5356271;26;20481;-67
2024/04/24 08:12:23;;;;;;;5.50;4.20;;;6.00;99.90;;;;;;5346980;26;20537;-67
2024/04/24 08:14:52;;;;;;;6.53;4.40;;;5.90;99.90;;;;;;5350520;26;20486;-67
2024/04/24 08:17:22;;;;;;;4.37;3.97;;;6.00;99.90;;;;;;5354311;26;20556;-67
2024/04/24 08:19:57;;;;;;;4.63;3.87;;;6.00;99.90;;;;;;5357967;26;20469;-67
2024/04/24 08:22:27;;;;;;;5.17;4.33;;;6.10;99.90;;;;;;5347518;26;20548;-67
2024/04/24 08:24:57;;;;;;;4.90;3.70;;;6.20;99.90;;;;;;5354350;26;20524;-67
2024/04/24 08:27:27;;;;;;;5.10;4.10;;;6.10;99.90;;;;;;5356064;26;20472;-67
2024/04/24 08:29:56;;;;;;;5.67;4.30;;;6.20;99.90;;;;;;5357408;26;20481;-67
2024/04/24 08:32:26;;;;;;;5.40;3.83;;;6.10;99.90;;;;;;5359403;26;20481;-68
2024/04/24 08:34:59;;;;;;;5.87;4.10;;;6.20;99.90;;;;;;5353331;26;20589;-67
2024/04/24 08:37:29;;;;;;;6.47;4.10;;;6.20;99.90;;;;;;5358351;26;20808;-67
2024/04/24 08:39:59;;;;;;;4.13;3.73;;;6.20;99.90;;;;;;5350174;26;20481;-67
2024/04/24 08:42:30;;;;;;;5.43;4.43;;;6.20;99.90;;;;;;5358236;26;20488;-67
2024/04/24 08:45:02;;;;;;;4.50;4.07;;;6.20;99.90;;;;;;5350341;26;20538;-67
2024/04/24 08:47:33;;;;;;;6.47;4.23;;;6.20;99.90;;;;;;5356571;26;20528;-67
2024/04/24 08:50:06;;;;;;;3.83;3.53;;;6.20;99.90;;;;;;5355388;26;20973;-67
2024/04/24 08:52:38;;;;;;;4.10;3.70;;;6.20;99.90;;;;;;5352440;26;20492;-67
2024/04/24 08:55:08;;;;;;;5.67;3.47;;;6.30;99.90;;;;;;5356209;26;20496;-66
2024/04/24 08:57:39;;;;;;;3.90;3.50;;;6.30;99.90;;;;;;5358024;26;20489;-67
2024/04/24 09:00:09;;;;;;;5.73;5.00;;;6.30;99.90;;;;;;5354691;26;20489;-67
2024/04/24 09:02:44;;;;;;;5.73;5.13;;;6.30;99.90;;;;;;5356381;26;20830;-67
2024/04/24 09:05:18;;;;;;;7.33;5.73;;;6.30;99.90;;;;;;5352326;26;21349;-67
2024/04/24 09:07:48;;;;;;;5.00;4.50;;;6.30;99.90;;;;;;5356874;26;20842;-67
2024/04/24 09:10:19;;;;;;;7.90;5.47;;;6.30;99.90;;;;;;5352943;26;20476;-67
2024/04/24 09:12:50;;;;;;;5.20;4.70;;;6.30;99.90;;;;;;5357388;26;20489;-67
2024/04/24 09:15:20;;;;;;;6.03;5.43;;;6.30;99.90;;;;;;5354278;26;20506;-67
2024/04/24 09:17:50;;;;;;;5.27;4.77;;;6.30;99.90;;;;;;5353099;26;20602;-67
2024/04/24 09:20:24;;;;;;;7.40;4.70;;;6.40;99.90;;;;;;5356198;26;20599;-68
2024/04/24 09:22:54;;;;;;;5.43;4.33;;;6.40;99.90;;;;;;5348798;26;20537;-67
2024/04/24 09:25:24;;;;;;;4.43;4.03;;;6.40;99.90;;;;;;5359151;26;20496;-67
2024/04/24 09:27:54;;;;;;;5.20;4.53;;;6.40;99.90;;;;;;5354558;26;20612;-67
2024/04/24 09:30:28;;;;;;;4.90;4.40;;;6.40;99.90;;;;;;5351221;26;20550;-67
2024/04/24 09:32:58;;;;;;;6.83;4.90;;;6.50;99.90;;;;;;5349531;26;20528;-67
2024/04/24 09:35:30;;;;;;;5.43;4.73;;;6.50;99.90;;;;;;5358705;26;20489;-67
2024/04/24 09:38:01;;;;;;;5.97;5.10;;;6.60;99.90;;;;;;5357663;26;20473;-67
2024/04/24 09:40:30;;;;;;;7.10;5.73;;;6.60;99.90;;;;;;5359387;26;20573;-67
2024/04/24 09:43:00;;;;;;;5.30;4.90;;;6.60;99.90;;;;;;5354861;26;20485;-67
2024/04/24 09:45:30;;;;;;;5.97;5.37;;;6.70;99.90;;;;;;5347788;26;20538;-67
2024/04/24 09:48:01;;;;;;;5.23;4.73;;;6.70;99.90;;;;;;5359030;26;21077;-67
2024/04/24 09:50:34;;;;;;;6.90;6.20;;;6.80;99.90;;;;;;5352773;26;20531;-67
2024/04/24 09:53:05;;;;;;;5.53;5.03;;;6.80;99.90;;;;;;5356711;26;20583;-67
2024/04/24 09:55:40;;;;;;;6.87;5.37;;;7.00;99.90;;;;;;5355164;26;20542;-67
2024/04/24 09:58:15;;;;;;;7.90;5.67;;;7.00;99.90;;;;;;5350794;26;20488;-67
2024/04/24 10:00:46;;;;;;;6.10;5.13;;;7.10;99.90;;;;;;5355385;26;20526;-67
2024/04/24 10:03:20;;;;;;;7.40;5.30;;;7.20;99.90;;;;;;5352227;26;21060;-67
2024/04/24 10:05:56;;;;;;;5.77;5.17;;;7.30;99.90;;;;;;5354709;26;20489;-67
2024/04/24 10:08:32;;;;;;;6.03;5.40;;;7.40;99.90;;;;;;5354222;26;20485;-67
2024/04/24 10:11:05;;;;;;;5.83;4.43;;;7.40;99.90;;;;;;5353106;26;20615;-67
2024/04/24 10:13:39;;;;;;;5.50;4.60;;;7.50;99.90;;;;;;5353336;26;23858;-67
2024/04/24 10:16:10;;;;;;;5.00;4.30;;;7.60;99.90;;;;;;5357312;26;21072;-67
2024/04/24 10:18:41;;;;;;;5.00;3.80;;;7.70;99.90;;;;;;5354249;26;20485;-67
2024/04/24 10:21:14;;;;;;;4.07;3.60;;;7.70;99.90;;;;;;5352672;26;20472;-68
2024/04/24 10:23:46;;;;;;;5.37;3.73;;;7.80;99.90;;;;;;5354034;26;20539;-68
2024/04/24 10:26:17;;;;;;;5.47;3.60;;;7.80;99.90;;;;;;5352046;26;20536;-68
2024/04/24 10:28:51;;;;;;;5.87;3.50;;;7.90;99.90;;;;;;5352021;26;20546;-68
2024/04/24 10:31:21;;;;;;;4.30;2.90;;;7.80;99.90;;;;;;5354504;26;21045;-68
2024/04/24 10:33:52;;;;;;;3.43;3.13;;;7.90;99.90;;;;;;5351407;26;21103;-68
2024/04/24 10:36:24;;;;;;;3.80;3.23;;;8.00;99.90;;;;;;5352667;26;20493;-68
2024/04/24 10:38:56;;;;;;;4.17;3.40;;;8.10;99.90;;;;;;5351758;26;20540;-68
2024/04/24 10:41:26;;;;;;;3.73;3.43;;;8.10;99.90;;;;;;5349095;26;20486;-68
2024/04/24 10:43:58;;;;;;;4.17;3.70;;;8.20;99.90;;;;;;5351935;26;20614;-68
2024/04/24 10:46:28;;;;;;;3.77;3.37;;;8.20;99.90;;;;;;5344589;26;20839;-68
2024/04/24 10:48:56;;;;;;;4.73;3.50;;;8.30;99.90;;;;;;5355098;26;20913;-67
2024/04/24 10:51:33;;;;;;;5.63;3.80;;;8.30;99.90;;;;;;5348452;26;20562;-68
2024/04/24 10:54:15;;;;;;;3.40;3.10;;;8.30;99.90;;;;;;5350473;26;20531;-68
2024/04/24 10:56:46;;;;;;;5.30;3.93;;;8.40;99.90;;;;;;5344255;26;20549;-72
2024/04/24 10:59:16;;;;;;;5.73;4.30;;;8.60;99.90;;;;;;5355945;26;20570;-68
2024/04/24 11:01:44;;;;;;;7.07;4.20;;;8.70;99.90;;;;;;5351317;26;20483;-68
2024/04/24 11:04:24;;;;;;;5.00;3.80;;;8.70;99.90;;;;;;5352665;26;21188;-68
2024/04/24 11:06:57;;;;;;;7.67;4.67;;;8.90;99.90;;;;;;5351879;26;20493;-67
2024/04/24 11:09:27;;;;;;;4.77;3.87;;;9.00;99.90;;;;;;5354971;26;20539;-68
2024/04/24 11:11:59;;;;;;;5.40;4.90;;;9.00;99.90;;;;;;5355960;26;20603;-68
2024/04/24 11:14:39;;;;;;;4.93;4.37;;;9.10;99.90;;;;;;5359311;26;20488;-67
2024/04/24 11:17:09;;;;;;;5.40;4.90;;;9.10;99.90;;;;;;5353325;26;20480;-68
2024/04/24 11:19:39;;;;;;;4.90;4.40;;;9.00;99.90;;;;;;5356756;26;20536;-68
2024/04/24 11:22:11;;;;;;;5.70;4.50;;;9.00;99.90;;;;;;5359247;26;20472;-68
2024/04/24 11:24:42;;;;;;;4.27;3.70;;;9.00;99.90;;;;;;5354443;26;20481;-68
2024/04/24 11:27:12;;;;;;;4.63;2.90;;;8.90;99.90;;;;;;5356692;26;21264;-68
2024/04/24 11:29:42;;;;;;;4.67;2.93;;;8.90;99.90;;;;;;5353685;26;20537;-68
2024/04/24 11:32:13;;;;;;;3.00;2.70;;;8.90;99.90;;;;;;5353458;26;20523;-68
2024/04/24 11:34:44;;;;;;;3.10;2.80;;;8.90;99.90;;;;;;5351556;26;20570;-68
2024/04/24 11:37:17;;;;;;;3.30;3.00;;;8.90;99.90;;;;;;5348827;26;20538;-68
2024/04/24 11:39:47;;;;;;;3.33;3.03;;;8.90;99.90;;;;;;5357803;26;20477;-68
2024/04/24 11:42:17;;;;;;;5.33;3.97;;;8.90;99.90;;;;;;5354249;26;20534;-68
2024/04/24 11:44:47;;;;;;;4.37;3.67;;;8.90;99.90;;;;;;5353649;26;20490;-67
2024/04/24 11:47:18;;;;;;;4.67;3.90;;;8.80;99.90;;;;;;5354754;26;20899;-67
2024/04/24 11:49:52;;;;;;;4.80;4.07;;;8.90;99.90;;;;;;5361688;26;20591;-68
2024/04/24 11:52:26;;;;;;;4.13;3.70;;;8.90;99.90;;;;;;5363433;26;20808;-68
2024/04/24 11:54:55;;;;;;;4.80;4.10;;;8.90;99.90;;;;;;5355864;26;20540;-68
2024/04/24 11:57:25;;;;;;;5.70;5.30;;;8.90;99.90;;;;;;5356795;26;20538;-68
2024/04/24 11:59:57;;;;;;;3.87;3.47;;;8.90;99.90;;;;;;5355057;26;20472;-68
2024/04/24 12:02:27;;;;;;;2.90;2.70;;;8.90;99.90;;;;;;5355043;26;20534;-69
2024/04/24 12:04:57;;;;;;;2.67;2.30;;;8.90;99.90;;;;;;5358212;26;20510;-68
2024/04/24 12:07:30;;;;;;;2.00;1.90;;;8.90;99.90;;;;;;5358970;26;21459;-68
2024/04/24 12:10:00;;;;;;;2.60;2.40;;;9.00;99.90;;;;;;5350164;26;20609;-68
2024/04/24 12:12:30;;;;;;;2.90;2.70;;;9.00;99.90;;;;;;5358671;26;20473;-68
2024/04/24 12:15:01;;;;;;;3.67;3.37;;;9.10;99.90;;;;;;5354004;26;20521;-69
2024/04/24 12:17:31;;;;;;;3.40;2.70;;;9.40;99.90;;;;;;5354767;26;20540;-69
2024/04/24 12:20:00;;;;;;;3.77;2.57;;;9.60;99.90;;;;;;5356306;26;20481;-67
2024/04/24 12:22:36;;;;;;;3.60;3.30;;;9.80;99.90;;;;;;5351170;26;20493;-68
2024/04/24 12:25:06;;;;;;;2.63;2.43;;;9.90;99.90;;;;;;5352126;26;20530;-68
2024/04/24 12:27:38;;;;;;;3.47;2.50;;;9.90;99.90;;;;;;5354717;26;20544;-68
2024/04/24 12:30:09;;;;;;;3.13;2.83;;;9.90;99.90;;;;;;5351384;26;20532;-68
2024/04/24 12:32:39;;;;;;;3.03;2.83;;;10.00;99.90;;;;;;5348158;26;20841;-69
2024/04/24 12:35:09;;;;;;;3.07;2.87;;;10.10;99.90;;;;;;5356672;26;20480;-67
2024/04/24 12:37:41;;;;;;;3.90;3.03;;;10.00;99.90;;;;;;5352283;26;20490;-67
2024/04/24 12:40:13;;;;;;;3.13;2.87;;;10.10;99.90;;;;;;5355980;26;20511;-68
2024/04/24 12:42:43;;;;;;;3.40;3.10;;;10.00;99.90;;;;;;5349353;26;20477;-67
2024/04/24 12:45:13;;;;;;;4.47;2.70;;;10.00;99.90;;;;;;5348441;26;20907;-68
2024/04/24 12:47:45;;;;;;;3.93;2.73;;;9.90;99.90;;;;;;5349263;26;20474;-68
2024/04/24 12:50:15;;;;;;;2.60;2.40;;;9.90;99.90;;;;;;5352757;26;20881;-69
2024/04/24 12:52:47;;;;;;;3.63;2.33;;;10.00;99.90;;;;;;5350129;26;20490;-68
2024/04/24 12:55:17;;;;;;;3.03;1.90;;;10.00;99.90;;;;;;5354639;26;20493;-68
2024/04/24 12:57:46;;;;;;;2.10;1.73;;;10.10;99.90;;;;;;5350476;26;21004;-68
2024/04/24 13:00:16;;;;;;;3.57;2.10;;;10.20;99.90;;;;;;5346638;26;20493;-68
2024/04/24 13:02:49;;;;;;;2.53;2.33;;;10.20;99.90;;;;;;5348440;26;20661;-68
2024/04/24 13:05:19;;;;;;;3.13;2.30;;;10.20;99.90;;;;;;5351933;26;20583;-68
2024/04/24 13:07:51;;;;;;;2.43;2.20;;;10.10;99.90;;;;;;5350535;26;21087;-68
2024/04/24 13:10:21;;;;;;;2.87;2.57;;;10.00;99.90;;;;;;5355524;26;20469;-68
2024/04/24 13:12:51;;;;;;;2.27;2.10;;;10.00;99.90;;;;;;5346663;26;20476;-68